Irving, NY (14081)

2:21 PM EDT en Octubre 21, 2014 (GMT -0400)
KNYIRVIN2 | Change Station
CLOSE
Current Station
Estación meteorológica personal
Location: Irving, NY
Altura: 587 ft
Estaciones meteorológicas cercanas

Alt 587 ft 42.56 °N, 79.14 °W | Updated 4 seconds ago

Nublado
Nublado
59.1 ° F
Sensación térmica 59.1 ° F
N
0.0
Viento Variable Viento desde NNE
Gusts 0.0 mph

Hoy
Alta -- | Baja -- ° F
--% Posibilidad de precipitaciones
Ayer
Alta -- | Baja -- ° F
Precip. -- pul
7:36 AM 6:24 PM
Creciente menguante, 5% visible
Presión 29.88 pul
Visibilidad 10.0 Millas
Nubes Nubes dispersas 1500 ft
Muy nublado 3300 ft
Nublado 4900 ft
Punto de rocío 50 ° F
Humedad 71%
Precipitaciones 0.00 pul
Espesor de la nieve No disponible.
UV 1 de una escala de 12
Polen .30 de una escala de 12
Ozono Buena
PM2.5 Moderada
Flu Activity Sporadic
SPECI KDKK 211815Z AUTO 26006G14KT 10SM SCT015 BKN033 OVC049 12/08 A2988 RMK AO2 T01220083

More Conditions Fewer Conditions

Presión 29.88 pul
Visibilidad 10.0 Millas
Nubes Nubes dispersas 1500 ft
Muy nublado 3300 ft
Nublado 4900 ft
Punto de rocío 50 ° F
Humedad 71%
Precipitaciones 0.00 pul
Espesor de la nieve No disponible.
UV 1 de una escala de 12
Polen .30 de una escala de 12
Ozono Buena
PM2.5 Moderada
Flu Activity Sporadic
SPECI KDKK 211815Z AUTO 26006G14KT 10SM SCT015 BKN033 OVC049 12/08 A2988 RMK AO2 T01220083

More Conditions Fewer Conditions

10-Day Weather Forecast

Almanac

Astronomía

Oct. 21, 2014 Salida Puesta
Hora real 7:36 AM EDT 6:24 PM EDT
Crepúsculo civil 7:07 AM EDT 6:53 PM EDT
Crepúsculo náutico 6:35 AM EDT 7:26 PM EDT
Crepúsculo astronómico 6:02 AM EDT 7:58 PM EDT
Luna 5:16 AM EDT 5:20 PM EDT
Horas de luz 11h 45m
Horas de luz
10h 48m
Tomorrow will be 2m 42s shorter.
Creciente menguante, 5% of the Moon is Illuminated
Hoy
Creciente menguante
Oct 23
Nueva
Oct 30
Cuarto creciente
Nov 6
Luna llena
Nov 14
Cuarto menguante

Extremos de hoy

Máximos del estado Bajos del estado

Community

WunderPhotos

Upload Photos

1,763,738 ¡fotos cargadas!

Nearby

Calidad del aire

  Calidad del aire Índice AQ Contaminante
Ayer Buena
PM2.5
Ayer Buena
OZONE
Real Moderada
PM2.5
Real Buena
OZONE
Martes Buena
PM2.5
Miércoles Buena
PM2.5

Grosos de nieve

Estación Profundido Altura
No tenemos constancia de nieve nueva.

Actividad de terremotos

Ciudad Distance Mag. Tiempo y dato
No hay informes recientes de la actividad sísmica.
Magnitud mínima muestra es 2,5.

Temperaturas de aguas costeras

Lugar Temperatura
Buffalo, NY 57.0 ° F

Estaciones meteorológicas cercanas